Terminal Aerodrome Forecast
Issued by NWS Sterling, VA

Current Version | Previous Version | Graphics & Text | Print | Product List | Glossary On
Versions: 1 2 3 4 5 6 7 8 9 10 11 12 13 14 15 16 17 18 19 20 21 22 23 24
000
FTUS41 KLWX 181136
TAFIAD
TAF
KIAD 181136Z 1812/1918 03004KT 5SM BR BKN010
     FM181500 03005KT P6SM BKN025
     FM181800 03007KT P6SM BKN035
     FM190800 36006KT P6SM SCT015
     FM191200 35006KT P6SM BKN020
     FM191300 35008KT P6SM BKN035=

USA.gov is the U.S. government's official web portal to all federal, state and local government web resources and services.